Cabot Corp (CBT) Latest Bloomsberg Price


Mffais Ranking #2419 Overall / #24 Industry
Industry: Basic And Diversified Chemicals

Number of Companies: 213 (Ranking #768 Overall/#9 Industry)
Inflow: $ 39,196 (K) (Ranking #1426 Overall/#14 Industry)
Outflow: $ -114,613 (K)
Mffais Flow: $ -75,416 (K) (Ranking #2419 Overall/#24 Industry)


Receive a FREE weekly executive review of stocks moving into the top 10, taking the top industy spot or moving up within their industry. Sent directly to your Inbox every Saturday. Sign up today and get last week's review immediately sent to you.

We value and respect your privacy. Please read our Terms and Conditions which states our firm commitment to your privacy. Your email address will not be shared with a third party, nor will it be sold or used for purposes other than subscription for the weekly review.

Owner CPOR Shares Action Qty Chg Invested (K) Total Current Value (K)
Wbi Investments Inc 2016-09-30 164,637 New Holding 164,637 $ 8,067 $ 8,067
Axa 2016-09-30 126,720 New Holding 126,720 $ 6,209 $ 6,209
First Quadrant L P Ca 2016-09-30 283,407 Added More 71,846 $ 3,520 $ 13,886
State Of Tennessee Treasury Department 2016-09-30 96,219 Added More 54,019 $ 2,646 $ 4,714
Martingale Asset Management L P 2016-09-30 244,829 Added More 42,600 $ 2,087 $ 11,996
Northern Trust Corp 2016-09-30 1,065,293 Added More 36,630 $ 1,794 $ 52,199
Omers Administration Corp 2016-09-30 56,600 Added More 24,700 $ 1,210 $ 2,773
Malaga Cove Capital Llc 2016-09-30 23,420 New Holding 23,420 $ 1,147 $ 1,147
Blackrock Inc 2016-09-30 102,921 Added More 22,070 $ 1,081 $ 5,043
Spot Trading L L C 2016-09-30 21,200 New Holding 21,200 $ 1,038 $ 1,038
South Dakota Investment Council 2016-09-30 20,679 New Holding 20,679 $ 1,013 $ 1,013
Cubist Systematic Strategies Llc 2016-09-30 25,250 Added More 17,767 $ 870 $ 1,237
Connable Office Inc 2016-09-30 16,932 Added More 11,063 $ 542 $ 829
Comerica Bank 2016-09-30 54,389 Added More 10,882 $ 533 $ 2,665
Edge Asset Management Inc 2016-09-30 280,879 Added More 9,587 $ 469 $ 13,763
Quantitative Investment Management Llc 2016-09-30 9,400 New Holding 9,400 $ 460 $ 460
Rhumbline Advisers 2016-09-30 112,748 Added More 8,760 $ 429 $ 5,524
Guggenheim Capital Llc 2016-09-30 45,685 Added More 8,227 $ 403 $ 2,238
Blackrock Japan Co Ltd 2016-09-30 11,627 Added More 7,126 $ 349 $ 569
Alambic Investment Management L P 2016-09-30 15,700 Added More 7,100 $ 347 $ 769
Verition Fund Management Llc 2016-09-30 6,906 New Holding 6,906 $ 338 $ 338
Centurylink Investment Management Co 2016-09-30 30,748 Added More 6,875 $ 336 $ 1,506
Foundry Partners Llc 2016-09-30 164,251 Added More 6,669 $ 326 $ 8,048
Algert Global Llc 2016-09-30 18,730 Added More 6,595 $ 323 $ 917
Wright Investors Service Inc 2016-09-30 6,360 New Holding 6,360 $ 311 $ 311
Babson Capital Management Llc 2016-09-30 10,500 Added More 6,100 $ 298 $ 514
Stifel Financial Corp 2016-09-30 78,938 Added More 5,315 $ 260 $ 3,867
Peak6 Investments L P 2016-09-30 13,156 Added More 5,137 $ 251 $ 644
World Asset Management Inc 2016-09-30 4,568 New Holding 4,568 $ 223 $ 223
Legal General Group Plc 2016-09-30 43,757 Added More 4,039 $ 197 $ 2,144
Deere Co 2016-09-30 4,016 New Holding 4,016 $ 196 $ 196
Maple Capital Management Inc 2016-09-30 4,000 New Holding 4,000 $ 196 $ 196
Hutchin Hill Capital Lp 2016-09-30 33,500 Added More 3,400 $ 166 $ 1,641
Tower Research Capital Llc Trc 2016-09-30 3,366 Added More 2,997 $ 146 $ 164
Stevens Capital Management Lp 2016-09-30 23,109 Added More 2,763 $ 135 $ 1,132
Raymond James Associates 2016-09-30 22,115 Added More 2,447 $ 119 $ 1,083
Sei Investments Co 2016-09-30 15,948 Added More 2,145 $ 105 $ 781
Parametric Portfolio Associates Llc 2016-09-30 469,550 Added More 2,097 $ 102 $ 23,007
Kcg Holdings Inc 2016-09-30 9,453 Added More 2,085 $ 102 $ 463
Hillcrest Asset Management Llc 2016-09-30 140,847 Added More 1,840 $ 90 $ 6,901
Blackrock Investment Management Llc 2016-09-30 185,513 Added More 1,833 $ 89 $ 9,090
Pacad Investment Ltd 2016-09-30 1,800 Added More 1,700 $ 83 $ 88
Invictus Rg 2016-09-30 13,018 Added More 1,583 $ 77 $ 637
Engineers Gate Manager Lp 2016-09-30 32,670 Added More 1,547 $ 75 $ 1,600
California State Teachers Retirement System 2016-09-30 134,102 Added More 1,100 $ 53 $ 6,570
Tradelink Capital Llc 2016-09-30 5,356 Added More 894 $ 43 $ 262
Mutual Of America Capital Management Llc 2016-09-30 47,645 Added More 693 $ 33 $ 2,334
Airain Ltd 2016-09-30 14,006 Added More 657 $ 32 $ 686
Cadence Capital Management Llc 2016-09-30 8,236 Added More 644 $ 31 $ 403
Bbva Compass Bancshares Inc 2016-09-30 9,650 Added More 564 $ 27 $ 472
Aperio Group Llc 2016-09-30 25,717 Added More 509 $ 24 $ 1,260
Pacer Advisors Inc 2016-09-30 5,799 Added More 492 $ 24 $ 284
Mason Street Advisors Llc 2016-09-30 28,861 Added More 405 $ 19 $ 1,414
Cabot-Wellington Llc 2016-09-30 389,160 Added More 395 $ 19 $ 19,068
Cornercap Investment Counsel Inc 2016-09-30 11,630 Added More 315 $ 15 $ 569
Ls Investment Advisors Llc 2016-09-30 4,009 Added More 263 $ 12 $ 196
Cwm Llc 2016-09-30 250 New Holding 250 $ 12 $ 12
Zurcher Kantonalbank Zurich Cantonalbank 2016-09-30 2,260 Added More 249 $ 12 $ 110
First Citizens Bank Trust Co 2016-09-30 9,496 Added More 127 $ 6 $ 465
Massmutual Trust Co Fsb Adv 2016-06-30 5,593 Added More 116 $ 5 $ 255
Financial Management Professionals Inc 2016-09-30 104 New Holding 104 $ 5 $ 5
Woodmont Investment Counsel Llc 2016-09-30 102 New Holding 102 $ 4 $ 4
Liberty Mutual Group Asset Management Inc 2016-09-30 27,157 Added More 86 $ 4 $ 1,330
Ifp Advisors Inc 2016-09-30 146 Added More 84 $ 4 $ 7
Motco 2016-09-30 83 New Holding 83 $ 4 $ 4
Creative Planning 2016-09-30 364 Added More 73 $ 3 $ 17
Howe Rusling Inc 2016-09-30 70 New Holding 70 $ 3 $ 3
Smith Asset Management Group Lp 2016-09-30 1,200 Added More 70 $ 3 $ 58
Springbok Capital Management Llc 2016-09-30 4,800 Added More 41 $ 2 $ 235
Walleye Trading Llc 2016-09-30 502 Added More 34 $ 1 $ 24
Arrowpoint Asset Management Llc 2016-09-30 26 New Holding 26 $ 1 $ 1
Proficio Capital Partners Llc 2016-09-30 202 Added More 19 $ 0 $ 9
Advisory Services Network Llc 2016-09-30 17 New Holding 17 $ 0 $ 0
Thompson Rubinstein Investment Management Inc Or 2016-09-30 4,800 No Change 0 $ 0 $ 235
Brown Brothers Harriman Co 2016-09-30 71,595 No Change 0 $ 0 $ 3,508
Teachers Retirement System Of The State Of Kentucky 2016-09-30 12,600 No Change 0 $ 0 $ 617
First Manhattan Co 2016-09-30 350 No Change 0 $ 0 $ 17
State Treasurer State Of Michigan 2016-09-30 25,080 No Change 0 $ 0 $ 1,228
Klingenstein Fields Co Llc 2016-09-30 4,800 No Change 0 $ 0 $ 235
Royce Associates Lp 2016-09-30 363,600 No Change 0 $ 0 $ 17,816
Globeflex Capital L P 2016-09-30 11,484 No Change 0 $ 0 $ 562
Nisa Investment Advisors Llc 2016-09-30 20,400 No Change 0 $ 0 $ 999
Mufg Americas Holdings Corp 2016-09-30 4,500 No Change 0 $ 0 $ 220
Thompson Davis Co Inc 2016-09-30 318 No Change 0 $ 0 $ 15
United Services Automobile Association 2016-09-30 212,000 No Change 0 $ 0 $ 10,388
Advantus Capital Management Inc 2016-09-30 7,557 No Change 0 $ 0 $ 370
Icon Advisers Inc Co 2016-09-30 7,000 No Change 0 $ 0 $ 343
Cambridge Trust Co 2016-09-30 134,998 No Change 0 $ 0 $ 6,614
Eaton Vance Management 2016-09-30 14,265 No Change 0 $ 0 $ 698
Kanaly Trust Co 2016-09-30 434 No Change 0 $ 0 $ 21
Keybank National Association Oh 2016-09-30 22,625 No Change 0 $ 0 $ 1,108
Eastern Bank 2016-09-30 117,324 No Change 0 $ 0 $ 5,748
Monetary Management Group Inc 2016-09-30 300 No Change 0 $ 0 $ 14
Trust Co Of Vermont 2016-09-30 1,465 No Change 0 $ 0 $ 71
Northwestern Mutual Wealth Management Co 2016-09-30 13 No Change 0 $ 0 $ 0
Employees Retirement System Of Texas 2016-09-30 90,000 No Change 0 $ 0 $ 4,410
Kbc Group Nv 2016-09-30 41,103 No Change 0 $ 0 $ 2,014
Sonora Investment Management Llc 2016-09-30 406 No Change 0 $ 0 $ 19
Sandy Spring Bank 2016-09-30 24 No Change 0 $ 0 $ 1
Qs Investors Llc 2016-09-30 7 No Change 0 $ 0 $ 0
Mizuho Trust Banking Co Ltd 2016-09-30 3,500 No Change 0 $ 0 $ 171
Clean Yield Group 2016-09-30 362 No Change 0 $ 0 $ 17
Wfg Advisors Lp 2016-09-30 11 No Change 0 $ 0 $ 0
Commonwealth Financial Services Llc 2016-09-30 130 No Change 0 $ 0 $ 6
Utah Retirement Systems 2016-09-30 11,027 No Change 0 $ 0 $ 540
Arizona State Retirement System 2016-09-30 24,387 No Change 0 $ 0 $ 1,194
Sensible Financial Planning Management Llc 2016-09-30 6,742 No Change 0 $ 0 $ 330
Strategic Global Advisors Llc 2016-09-30 11,321 No Change 0 $ 0 $ 554
Gemmer Asset Management Llc 2016-09-30 172 No Change 0 $ 0 $ 8
Gratus Capital Llc 2016-09-30 9,653 No Change 0 $ 0 $ 472
Integrated Investment Consultants Llc 2016-09-30 1,871 No Change 0 $ 0 $ 91
Bronfman E L Rothschild L P 2016-09-30 198 Sold Some -2 $ -0 $ 9
Parkside Financial Bank Trust 2016-09-30 608 Sold Some -4 $ -0 $ 29
Weaver C Barksdale Associates Inc 2016-09-30 233 Sold Some -13 $ -0 $ 11
Sterling Capital Management Llc 2016-09-30 51,829 Sold Some -26 $ -1 $ 2,539
Northwestern Mutual Investment Management Company Llc 2016-09-30 10,742 Sold Some -30 $ -1 $ 526
Palouse Capital Management Inc 2016-09-30 4,806 Sold Some -48 $ -2 $ 235
Capital One National Association 2016-09-30 25,573 Sold Some -78 $ -3 $ 1,253
Citizens Financial Group Inc Ri 2016-09-30 0 Sold All -85 $ -4 $ 0
Checchi Capital Advisers Llc 2016-09-30 0 Sold All -88 $ -4 $ 0
Advisors Asset Management Inc 2016-09-30 1,500 Sold Some -100 $ -4 $ 73
Oakbrook Investments Llc 2016-09-30 5,700 Sold Some -100 $ -4 $ 279
Advisor Group Inc 2016-09-30 845 Sold Some -108 $ -5 $ 41
Retirement Systems Of Alabama 2016-09-30 80,383 Sold Some -110 $ -5 $ 3,938
Oshaughnessy Asset Management Llc 2016-09-30 3,651 Sold Some -121 $ -5 $ 178
1st Source Bank 2016-09-30 16,949 Sold Some -161 $ -7 $ 830
Texas Permanent School Fund 2016-09-30 47,519 Sold Some -193 $ -9 $ 2,328
Acrospire Investment Management Llc 2016-09-30 2,700 Sold Some -200 $ -9 $ 132
Lucus Advisors Llc 2016-09-30 7,499 Sold Some -218 $ -10 $ 367
Msi Financial Services Inc 2016-09-30 250 Sold Some -250 $ -12 $ 12
Capstone Asset Management Co 2016-09-30 5,632 Sold Some -280 $ -13 $ 275
United Capital Financial Advisers Llc 2016-09-30 17,087 Sold Some -302 $ -14 $ 837
Piermont Capital Management Inc 2016-09-30 41,037 Sold Some -330 $ -16 $ 2,010
American International Group Inc 2016-09-30 120,509 Sold Some -339 $ -16 $ 5,904
Pnc Financial Services Group Inc 2016-09-30 2,272 Sold Some -364 $ -17 $ 111
Ibm Retirement Fund 2016-09-30 5,804 Sold Some -368 $ -18 $ 284
New York State Teachers Retirement System 2016-09-30 125,382 Sold Some -400 $ -19 $ 6,143
Ladenburg Thalmann Financial Services Inc 2016-09-30 906 Sold Some -438 $ -21 $ 44
Dynamic Technology Lab Private Ltd 2016-09-30 4,463 Sold Some -485 $ -23 $ 218
Regions Financial Corp 2016-09-30 8,870 Sold Some -529 $ -25 $ 434
Alpha Windward Llc 2016-09-30 9,284 Sold Some -540 $ -26 $ 454
Panagora Asset Management Inc 2016-09-30 789,535 Sold Some -579 $ -28 $ 38,687
Loring Wolcott Coolidge Fiduciary Advisors Llp Ma 2016-09-30 378,193 Sold Some -740 $ -36 $ 18,531
Fifth Third Bancorp 2016-09-30 13,550 Sold Some -807 $ -39 $ 663
Proshare Advisors Llc 2016-09-30 9,560 Sold Some -844 $ -41 $ 468
Hsbc Holdings Plc 2016-09-30 67,157 Sold Some -873 $ -42 $ 3,290
Patten Patten Inc Tn 2016-09-30 26,578 Sold Some -915 $ -44 $ 1,302
Cutler Group Lp 2016-09-30 853 Sold Some -968 $ -47 $ 41
Gsa Capital Partners Llp 2016-09-30 7,757 Sold Some -1,143 $ -56 $ 380
Shell Asset Management Co 2016-09-30 29,913 Sold Some -1,369 $ -67 $ 1,465
Nomura Asset Management Co Ltd 2016-09-30 0 Sold All -1,440 $ -70 $ 0
Dupont Capital Management Corp 2016-09-30 37,079 Sold Some -1,577 $ -77 $ 1,816
Financial Counselors Inc 2016-06-30 16,611 Sold Some -1,702 $ -77 $ 758
Meeder Asset Management Inc 2016-09-30 1,510 Sold Some -1,871 $ -91 $ 73
M T Bank Corp 2016-09-30 10,379 Sold Some -1,881 $ -92 $ 508
Us Bancorp De 2016-09-30 19,095 Sold Some -1,915 $ -93 $ 935
Teacher Retirement System Of Texas 2016-09-30 6,761 Sold Some -1,974 $ -96 $ 331
Hillsdale Investment Management Inc 2016-09-30 7,380 Sold Some -2,200 $ -107 $ 361
Menta Capital Llc 2016-09-30 24,332 Sold Some -2,300 $ -112 $ 1,192
Envestnet Asset Management Inc 2016-09-30 27,226 Sold Some -2,631 $ -128 $ 1,334
Systematic Financial Management Lp 2016-09-30 35,140 Sold Some -3,565 $ -174 $ 1,721
Breton Hill Capital Ltd 2016-09-30 12,584 Sold Some -3,648 $ -178 $ 616
Swiss National Bank 2016-09-30 99,600 Sold Some -3,800 $ -186 $ 4,880
Profund Advisors Llc 2016-09-30 13,964 Sold Some -4,005 $ -196 $ 684
Cantab Capital Partners Llp 2016-09-30 3,234 Sold Some -4,553 $ -223 $ 158
Tudor Investment Corp Et Al 2016-09-30 5,511 Sold Some -4,558 $ -223 $ 270
Ironwood Investment Management Llc 2016-09-30 27,449 Sold Some -4,731 $ -231 $ 1,345
Patten Group Inc 2016-09-30 2,200 Sold Some -4,775 $ -233 $ 107
Crestpoint Capital Management Llc 2016-09-30 14,000 Sold Some -5,000 $ -245 $ 686
Jacobs Levy Equity Management Inc 2016-09-30 0 Sold All -5,528 $ -270 $ 0
Oregon Public Employees Retirement Fund 2016-09-30 21,560 Sold Some -6,686 $ -327 $ 1,056
Shelton Capital Management 2016-09-30 0 Sold All -6,690 $ -327 $ 0
Bank Of Hawaii 2016-09-30 11,490 Sold Some -6,835 $ -334 $ 563
Ahl Partners Llp 2016-09-30 52,508 Sold Some -6,946 $ -340 $ 2,572
Trexquant Investment Lp 2016-09-30 0 Sold All -7,500 $ -367 $ 0
Quantbot Technologies Lp 2016-09-30 3,560 Sold Some -7,808 $ -382 $ 174
Robeco Institutional Asset Management B V 2016-09-30 32,799 Sold Some -8,789 $ -430 $ 1,607
Quotient Investors Llc 2016-09-30 0 Sold All -9,081 $ -444 $ 0
Phocas Financial Corp 2016-09-30 48,716 Sold Some -10,572 $ -518 $ 2,387
Fox Run Management L L C 2016-09-30 0 Sold All -11,200 $ -548 $ 0
Fiduciary Trust Co 2016-09-30 1,198,239 Sold Some -11,280 $ -552 $ 58,713
Cipher Capital Lp 2016-09-30 0 Sold All -11,739 $ -575 $ 0
New York State Common Retirement Fund 2016-09-30 295,440 Sold Some -11,850 $ -580 $ 14,476
Sg Americas Securities Llc 2016-09-30 21,571 Sold Some -11,951 $ -585 $ 1,056
Snyder Capital Management L P 2016-09-30 594,655 Sold Some -12,296 $ -602 $ 29,138
Boston Advisors Llc 2016-09-30 119,850 Sold Some -12,750 $ -624 $ 5,872
Dekabank Deutsche Girozentrale 2016-09-30 11,800 Sold Some -13,100 $ -641 $ 578
Putnam Investments Llc 2016-09-30 72,618 Sold Some -13,852 $ -678 $ 3,558
Marshall Wace Llp 2016-09-30 0 Sold All -15,368 $ -753 $ 0
Gotham Asset Management Llc 2016-09-30 314,088 Sold Some -15,488 $ -758 $ 15,390
Squarepoint Ops Llc 2016-09-30 9,609 Sold Some -16,701 $ -818 $ 470
Hanseatic Management Services Inc 2016-09-30 1,011 Sold Some -16,874 $ -826 $ 49
Amp Capital Investors Ltd 2016-09-30 31,190 Sold Some -17,400 $ -852 $ 1,528
A R T Advisors Llc 2016-09-30 0 Sold All -17,528 $ -858 $ 0
Emerald Acquisition Ltd 2016-09-30 93,357 Sold Some -17,767 $ -870 $ 4,574
Kames Capital Plc 2016-09-30 0 Sold All -24,550 $ -1,202 $ 0
Primecap Management Co Ca 2016-09-30 125,000 Sold Some -25,000 $ -1,225 $ 6,125
Tfs Capital Llc 2016-09-30 0 Sold All -26,496 $ -1,298 $ 0
Nuveen Asset Management Llc 2016-09-30 220,125 Sold Some -41,500 $ -2,033 $ 10,786
Chicago Equity Partners Llc 2016-09-30 400,850 Sold Some -46,950 $ -2,300 $ 19,641
Earnest Partners Llc 2016-09-30 1,153,768 Sold Some -58,939 $ -2,888 $ 56,534
Thrivent Financial For Lutherans 2016-09-30 79,440 Sold Some -73,710 $ -3,611 $ 3,892
Shanda Asset Management Holdings Ltd 2016-09-30 0 Sold All -74,832 $ -3,666 $ 0
Nationwide Fund Advisors 2016-09-30 109,008 Sold Some -81,924 $ -4,014 $ 5,341
Capital Fund Management S A 2016-09-30 6,004 Sold Some -82,697 $ -4,052 $ 294
Bluecrest Capital Management Ltd 2016-09-30 14,828 Sold Some -84,293 $ -4,130 $ 726
Cornerstone Capital Management Holdings Llc 2016-09-30 152,308 Sold Some -85,037 $ -4,166 $ 7,463
Cambiar Investors Llc 2016-09-30 484,466 Sold Some -105,588 $ -5,173 $ 23,738
Fuller Thaler Asset Management Inc 2016-09-30 1,136,840 Sold Some -125,547 $ -6,151 $ 55,705
Teachers Advisors Inc 2016-09-30 151,235 Sold Some -138,326 $ -6,777 $ 7,410
Bogle Investment Management L P De 2016-09-30 0 Sold All -188,414 $ -9,232 $ 0
Mesirow Financial Investment Management - Equity Management 2016-09-30 0 Sold All -349,005 $ -17,101 $ 0
Dimensional Fund Advisors Lp 2016-09-30 1,475,642 Sold Some -350,098 $ -17,154 $ 72,306